METAR Data
IDs: Format: Raw Decoded Include TAF

Data at: 0226 UTC 16 Jan 2019

METAR for:PAVC (King Cove Arpt, AK, US)
Text:PAVC 160156Z AUTO 28012KT 10SM BKN010 OVC014 01/01 A2948 RMK AO2 SLPNO T00060006 FZRANO
Temperature: 0.6°C ( 33°F)
Dewpoint: 0.6°C ( 33°F) [RH = 100%]
Pressure (altimeter):29.48 inches Hg ( 998.4 mb)
Winds:from the W (280 degrees) at 14 MPH (12 knots; 6.2 m/s)
Visibility:10 or more sm (16+ km)
Ceiling:1000 feet AGL
Clouds: broken clouds at 1000 feet AGL, overcast cloud deck at 1400 feet AGL
QC Flag:automated observation with no human augmentation
Text:PAVC 160122Z AUTO 27013KT 7SM FEW002 BKN010 OVC027 01/01 A2947 RMK AO2 FZRANO
Temperature: 1.0°C ( 34°F)
Dewpoint: 1.0°C ( 34°F) [RH = 100%]
Pressure (altimeter):29.47 inches Hg ( 998.1 mb)
Winds:from the W (270 degrees) at 15 MPH (13 knots; 6.7 m/s)
Visibility: 7 sm ( 11 km)
Ceiling:1000 feet AGL
Clouds: few clouds at 200 feet AGL, broken clouds at 1000 feet AGL, overcast cloud deck at 2700 feet AGL
QC Flag:automated observation with no human augmentation
Text:PAVC 160056Z AUTO 28012KT 9SM BKN010 OVC018 01/00 A2947 RMK AO2 UPB09E44 SLPNO P0000 T00060000 FZRANO
Temperature: 0.6°C ( 33°F)
Dewpoint: 0.0°C ( 32°F) [RH = 96%]
Pressure (altimeter):29.47 inches Hg ( 998.1 mb)
Winds:from the W (280 degrees) at 14 MPH (12 knots; 6.2 m/s)
Visibility: 9 sm ( 14 km)
Ceiling:1000 feet AGL
Clouds: broken clouds at 1000 feet AGL, overcast cloud deck at 1800 feet AGL
QC Flag:automated observation with no human augmentation
Text:PAVC 152356Z AUTO 28011KT 6SM BR BKN014 OVC023 01/01 A2947 RMK AO2 RAE55 SLPNO P0001 6//// T00060006 FZRANO
Temperature: 0.6°C ( 33°F)
Dewpoint: 0.6°C ( 33°F) [RH = 100%]
Pressure (altimeter):29.47 inches Hg ( 998.1 mb)
Winds:from the W (280 degrees) at 13 MPH (11 knots; 5.7 m/s)
Visibility: 6 sm ( 10 km)
Ceiling:1400 feet AGL
Clouds: broken clouds at 1400 feet AGL, overcast cloud deck at 2300 feet AGL
Weather:BR (mist)
QC Flag:automated observation with no human augmentation
Text:PAVC 152348Z AUTO 28011KT 4SM -RA BR BKN016 OVC023 01/01 A2947 RMK AO2 P0001 FZRANO
Temperature: 1.0°C ( 34°F)
Dewpoint: 1.0°C ( 34°F) [RH = 100%]
Pressure (altimeter):29.47 inches Hg ( 998.1 mb)
Winds:from the W (280 degrees) at 13 MPH (11 knots; 5.7 m/s)
Visibility: 4 sm ( 6 km)
Ceiling:1600 feet AGL
Clouds: broken clouds at 1600 feet AGL, overcast cloud deck at 2300 feet AGL
Weather:-RA BR (light rain, mist)
QC Flag:automated observation with no human augmentation
Text:PAVC 152340Z AUTO 28009KT 2 1/2SM -RA BR BKN018 OVC023 01/01 A2947 RMK AO2 P0001 FZRANO
Temperature: 1.0°C ( 34°F)
Dewpoint: 1.0°C ( 34°F) [RH = 100%]
Pressure (altimeter):29.47 inches Hg ( 998.1 mb)
Winds:from the W (280 degrees) at 10 MPH (9 knots; 4.6 m/s)
Visibility: 2.50 sm ( 4.02 km)
Ceiling:1800 feet AGL
Clouds: broken clouds at 1800 feet AGL, overcast cloud deck at 2300 feet AGL
Weather:-RA BR (light rain, mist)
QC Flag:automated observation with no human augmentation
Text:PAVC 152321Z AUTO 27009KT 4SM -RA BR BKN018 OVC023 01/00 A2947 RMK AO2 P0000 FZRANO
Temperature: 1.0°C ( 34°F)
Dewpoint: 0.0°C ( 32°F) [RH = 93%]
Pressure (altimeter):29.47 inches Hg ( 998.1 mb)
Winds:from the W (270 degrees) at 10 MPH (9 knots; 4.6 m/s)
Visibility: 4 sm ( 6 km)
Ceiling:1800 feet AGL
Clouds: broken clouds at 1800 feet AGL, overcast cloud deck at 2300 feet AGL
Weather:-RA BR (light rain, mist)
QC Flag:automated observation with no human augmentation
Text:PAVC 152309Z AUTO 27010KT 2SM -RA BR FEW012 OVC021 01/00 A2947 RMK AO2 P0000 FZRANO
Temperature: 1.0°C ( 34°F)
Dewpoint: 0.0°C ( 32°F) [RH = 93%]
Pressure (altimeter):29.47 inches Hg ( 998.1 mb)
Winds:from the W (270 degrees) at 12 MPH (10 knots; 5.1 m/s)
Visibility: 2.00 sm ( 3.22 km)
Ceiling:2100 feet AGL
Clouds: few clouds at 1200 feet AGL, overcast cloud deck at 2100 feet AGL
Weather:-RA BR (light rain, mist)
QC Flag:automated observation with no human augmentation
Text:PAVC 152256Z AUTO 28010KT 4SM -RA BR BKN018 OVC023 01/00 A2948 RMK AO2 SLPNO P0001 T00060000 FZRANO
Temperature: 0.6°C ( 33°F)
Dewpoint: 0.0°C ( 32°F) [RH = 96%]
Pressure (altimeter):29.48 inches Hg ( 998.4 mb)
Winds:from the W (280 degrees) at 12 MPH (10 knots; 5.1 m/s)
Visibility: 4 sm ( 6 km)
Ceiling:1800 feet AGL
Clouds: broken clouds at 1800 feet AGL, overcast cloud deck at 2300 feet AGL
Weather:-RA BR (light rain, mist)
QC Flag:automated observation with no human augmentation
Text:PAVC 152216Z AUTO 26009KT 4SM -RA BR FEW004 BKN019 OVC028 01/M01 A2948 RMK AO2 P0000 FZRANO
Temperature: 1.0°C ( 34°F)
Dewpoint: -1.0°C ( 30°F) [RH = 86%]
Pressure (altimeter):29.48 inches Hg ( 998.4 mb)
Winds:from the W (260 degrees) at 10 MPH (9 knots; 4.6 m/s)
Visibility: 4 sm ( 6 km)
Ceiling:1900 feet AGL
Clouds: few clouds at 400 feet AGL, broken clouds at 1900 feet AGL, overcast cloud deck at 2800 feet AGL
Weather:-RA BR (light rain, mist)
QC Flag:automated observation with no human augmentation
Text:PAVC 152156Z AUTO 27008KT 2 1/2SM -RA BR FEW004 BKN021 OVC028 01/M01 A2949 RMK AO2 VIS 2V5 UPB45E55RAB55SNB13E45 SLPNO T00061006 FZRANO
Temperature: 0.6°C ( 33°F)
Dewpoint: -0.6°C ( 31°F) [RH = 92%]
Pressure (altimeter):29.49 inches Hg ( 998.7 mb)
Winds:from the W (270 degrees) at 9 MPH (8 knots; 4.1 m/s)
Visibility: 2.50 sm ( 4.02 km)
Ceiling:2100 feet AGL
Clouds: few clouds at 400 feet AGL, broken clouds at 2100 feet AGL, overcast cloud deck at 2800 feet AGL
Weather:-RA BR (light rain, mist)
QC Flag:automated observation with no human augmentation
Text:PAVC 152141Z AUTO 26007KT 3SM -SN BR FEW004 BKN015 OVC021 00/M01 A2949 RMK AO2 SNB13 FZRANO
Temperature: 0.0°C ( 32°F)
Dewpoint: -1.0°C ( 30°F) [RH = 93%]
Pressure (altimeter):29.49 inches Hg ( 998.7 mb)
Winds:from the W (260 degrees) at 8 MPH (7 knots; 3.6 m/s)
Visibility: 3 sm ( 5 km)
Ceiling:1500 feet AGL
Clouds: few clouds at 400 feet AGL, broken clouds at 1500 feet AGL, overcast cloud deck at 2100 feet AGL
Weather:-SN BR (light snow, mist)
QC Flag:automated observation with no human augmentation
Text:PAVC 152127Z AUTO 26005KT 2SM -SN BR 00/M01 A2949 RMK AO2 VIS 1V5 SNB13 FZRANO
Temperature: 0.0°C ( 32°F)
Dewpoint: -1.0°C ( 30°F) [RH = 93%]
Pressure (altimeter):29.49 inches Hg ( 998.7 mb)
Winds:from the W (260 degrees) at 6 MPH (5 knots; 2.6 m/s)
Visibility: 2.00 sm ( 3.22 km)
Weather:-SN BR (light snow, mist)
QC Flag:automated observation with no human augmentation
Text:PAVC 152056Z AUTO 25004KT 1SM -SN BR OVC014 00/M01 A2949 RMK AO2 RAE05UPB05E06SNB06 SLP993 P0004 60004 T00001006 50009 FZRANO
Temperature: 0.0°C ( 32°F)
Dewpoint: -0.6°C ( 31°F) [RH = 96%]
Pressure (altimeter):29.49 inches Hg ( 998.7 mb) [Sea level pressure: 999.3 mb]
Winds:from the WSW (250 degrees) at 5 MPH (4 knots; 2.1 m/s)
Visibility: 1.00 sm ( 1.61 km)
Ceiling:1400 feet AGL
Clouds: overcast cloud deck at 1400 feet AGL
Weather:-SN BR (light snow, mist)
QC Flag:automated observation with no human augmentation
Text:PAVC 152045Z AUTO 24003KT 1SM -SN BR OVC014 01/M01 A2949 RMK AO2 RAE05UPB05E06SNB06 P0003 FZRANO
Temperature: 1.0°C ( 34°F)
Dewpoint: -1.0°C ( 30°F) [RH = 86%]
Pressure (altimeter):29.49 inches Hg ( 998.7 mb)
Winds:from the WSW (240 degrees) at 3 MPH (3 knots; 1.5 m/s)
Visibility: 1.00 sm ( 1.61 km)
Ceiling:1400 feet AGL
Clouds: overcast cloud deck at 1400 feet AGL
Weather:-SN BR (light snow, mist)
QC Flag:automated observation with no human augmentation

TAF for:PAVC (King Cove Arpt, AK, US)
Text:No data found